RYR394R LIME-LEIB
Flight info
| Callsign | RYR394R |
|---|---|
| Flight time | 1h 10m |
| Altitude | 37000 |
| Route | VOG DCT GEKBA DCT VAMTU DCT KOLON DCT GANGU DCT PADKO DCT VATIR N852 PIVUS Z237 SULID DCT DIMIB DCT POS |
| Aircraft | B738/M-SDE2E3FGHIRWXY/LB1 |
Departure
| Time | 2026-05-07 17:03 |
|---|---|
| Airport | Il Caravaggio International Airport (LIME) |
Arrival
| Time | 2026-05-07 18:13 |
|---|---|
| Airport | Ibiza Airport (LEIB) |
| Time | Latitude | Longitude | Altitude | Speed | Heading |
|---|---|---|---|---|---|
| 2026-05-07 16:22 | 45.66593 | 9.70394 | 786 ft | 0 kts | 195° |
| 2026-05-07 16:55 | 45.66589 | 9.70392 | 786 ft | 2 kts | 195° |
| 2026-05-07 16:56 | 45.66568 | 9.70386 | 786 ft | 3 kts | 185° |
| 2026-05-07 16:56 | 45.66553 | 9.70411 | 786 ft | 4 kts | 110° |
| 2026-05-07 16:56 | 45.66587 | 9.70455 | 786 ft | 4 kts | 18° |
| 2026-05-07 16:57 | 45.66613 | 9.70467 | 786 ft | 5 kts | 17° |
| 2026-05-07 16:57 | 45.66645 | 9.70494 | 786 ft | 6 kts | 64° |
| 2026-05-07 16:57 | 45.66639 | 9.70551 | 786 ft | 7 kts | 103° |
| 2026-05-07 16:57 | 45.66615 | 9.70673 | 786 ft | 19 kts | 106° |
| 2026-05-07 16:58 | 45.66575 | 9.70890 | 786 ft | 23 kts | 105° |
| 2026-05-07 16:58 | 45.66539 | 9.71074 | 786 ft | 17 kts | 106° |
| 2026-05-07 16:58 | 45.66499 | 9.71232 | 786 ft | 17 kts | 107° |
| 2026-05-07 16:58 | 45.66469 | 9.71387 | 786 ft | 16 kts | 105° |
| 2026-05-07 16:59 | 45.66441 | 9.71534 | 786 ft | 15 kts | 102° |
| 2026-05-07 16:59 | 45.66450 | 9.71681 | 786 ft | 15 kts | 75° |
| 2026-05-07 16:59 | 45.66472 | 9.71819 | 786 ft | 14 kts | 87° |
| 2026-05-07 16:59 | 45.66455 | 9.71955 | 786 ft | 14 kts | 105° |
| 2026-05-07 17:00 | 45.66425 | 9.72119 | 786 ft | 20 kts | 104° |
| 2026-05-07 17:00 | 45.66393 | 9.72293 | 786 ft | 15 kts | 105° |
| 2026-05-07 17:00 | 45.66381 | 9.72355 | 786 ft | 0 kts | 105° |
| 2026-05-07 17:01 | 45.66377 | 9.72379 | 786 ft | 7 kts | 105° |
| 2026-05-07 17:01 | 45.66378 | 9.72483 | 786 ft | 13 kts | 70° |
| 2026-05-07 17:01 | 45.66453 | 9.72495 | 786 ft | 13 kts | 293° |
| 2026-05-07 17:02 | 45.66463 | 9.72436 | 786 ft | 0 kts | 286° |
| 2026-05-07 17:02 | 45.66463 | 9.72435 | 786 ft | 0 kts | 286° |
| 2026-05-07 17:02 | 45.66487 | 9.72309 | 786 ft | 44 kts | 284° |
| 2026-05-07 17:02 | 45.66634 | 9.71502 | 786 ft | 121 kts | 285° |
| 2026-05-07 17:03 | 45.66904 | 9.70030 | 802 ft | 182 kts | 283° |
| 2026-05-07 17:03 | 45.67218 | 9.68233 | 1602 ft | 184 kts | 281° |
| 2026-05-07 17:03 | 45.67203 | 9.66473 | 2620 ft | 180 kts | 250° |
| 2026-05-07 17:03 | 45.66460 | 9.65096 | 3536 ft | 175 kts | 219° |
| 2026-05-07 17:04 | 45.65555 | 9.64046 | 4590 ft | 163 kts | 220° |
| 2026-05-07 17:04 | 45.64724 | 9.63011 | 5478 ft | 155 kts | 223° |
| 2026-05-07 17:04 | 45.63884 | 9.61897 | 5913 ft | 180 kts | 224° |
| 2026-05-07 17:04 | 45.62910 | 9.60554 | 6202 ft | 209 kts | 225° |
| 2026-05-07 17:05 | 45.61817 | 9.59019 | 6568 ft | 229 kts | 225° |
| 2026-05-07 17:05 | 45.60645 | 9.57391 | 7080 ft | 240 kts | 225° |
| 2026-05-07 17:05 | 45.59457 | 9.55724 | 7782 ft | 244 kts | 226° |
| 2026-05-07 17:05 | 45.58251 | 9.54017 | 8680 ft | 244 kts | 226° |
| 2026-05-07 17:06 | 45.57041 | 9.52295 | 9517 ft | 248 kts | 226° |
| 2026-05-07 17:06 | 45.55818 | 9.50551 | 10318 ft | 250 kts | 226° |
| 2026-05-07 17:06 | 45.54556 | 9.48729 | 10758 ft | 269 kts | 227° |
| 2026-05-07 17:06 | 45.53176 | 9.46726 | 10976 ft | 296 kts | 227° |
| 2026-05-07 17:07 | 45.51668 | 9.44541 | 11182 ft | 322 kts | 226° |
| 2026-05-07 17:07 | 45.50040 | 9.42187 | 11446 ft | 343 kts | 226° |
| 2026-05-07 17:07 | 45.48315 | 9.39758 | 12026 ft | 353 kts | 222° |
| 2026-05-07 17:07 | 45.46302 | 9.37799 | 12774 ft | 358 kts | 212° |
| 2026-05-07 17:08 | 45.44132 | 9.36030 | 13551 ft | 360 kts | 211° |
| 2026-05-07 17:08 | 45.41944 | 9.34283 | 14393 ft | 360 kts | 212° |
| 2026-05-07 17:08 | 45.39762 | 9.32535 | 15168 ft | 361 kts | 212° |
| 2026-05-07 17:08 | 45.37572 | 9.30761 | 15906 ft | 363 kts | 212° |
| 2026-05-07 17:09 | 45.35371 | 9.28962 | 16611 ft | 366 kts | 212° |
| 2026-05-07 17:09 | 45.33154 | 9.27139 | 17304 ft | 370 kts | 212° |
| 2026-05-07 17:09 | 45.30915 | 9.25291 | 17970 ft | 374 kts | 212° |
| 2026-05-07 17:09 | 45.28654 | 9.23423 | 18577 ft | 378 kts | 212° |
| 2026-05-07 17:10 | 45.26372 | 9.21537 | 19166 ft | 381 kts | 213° |
| 2026-05-07 17:10 | 45.24072 | 9.19638 | 19772 ft | 383 kts | 213° |
| 2026-05-07 17:10 | 45.21761 | 9.17730 | 20353 ft | 386 kts | 213° |
| 2026-05-07 17:10 | 45.19458 | 9.15832 | 20902 ft | 390 kts | 213° |
| 2026-05-07 17:11 | 45.17098 | 9.13887 | 21404 ft | 395 kts | 213° |
| 2026-05-07 17:11 | 45.14714 | 9.11925 | 21944 ft | 398 kts | 213° |
| 2026-05-07 17:11 | 45.12312 | 9.09950 | 22478 ft | 401 kts | 213° |
| 2026-05-07 17:11 | 45.09896 | 9.07967 | 23026 ft | 403 kts | 213° |
| 2026-05-07 17:12 | 45.07459 | 9.05968 | 23587 ft | 405 kts | 213° |
| 2026-05-07 17:12 | 45.05020 | 9.03969 | 24059 ft | 407 kts | 213° |
| 2026-05-07 17:12 | 45.02567 | 9.01960 | 24514 ft | 408 kts | 213° |
| 2026-05-07 17:12 | 45.00107 | 8.99947 | 24961 ft | 409 kts | 213° |
| 2026-05-07 17:13 | 44.97653 | 8.97932 | 25511 ft | 407 kts | 215° |
| 2026-05-07 17:13 | 44.95503 | 8.95492 | 26003 ft | 400 kts | 231° |
| 2026-05-07 17:13 | 44.93762 | 8.92430 | 26470 ft | 400 kts | 234° |
| 2026-05-07 17:13 | 44.92028 | 8.89328 | 26721 ft | 406 kts | 234° |
| 2026-05-07 17:14 | 44.90263 | 8.86189 | 27045 ft | 409 kts | 234° |
| 2026-05-07 17:14 | 44.88483 | 8.83051 | 27450 ft | 411 kts | 233° |
| 2026-05-07 17:14 | 44.86689 | 8.79908 | 27865 ft | 412 kts | 233° |
| 2026-05-07 17:14 | 44.84888 | 8.76767 | 28241 ft | 413 kts | 233° |
| 2026-05-07 17:15 | 44.83077 | 8.73618 | 28569 ft | 415 kts | 233° |
| 2026-05-07 17:15 | 44.81277 | 8.70494 | 28929 ft | 416 kts | 233° |
| 2026-05-07 17:15 | 44.79449 | 8.67328 | 29319 ft | 417 kts | 233° |
| 2026-05-07 17:15 | 44.77615 | 8.64154 | 29670 ft | 418 kts | 233° |
| 2026-05-07 17:16 | 44.75776 | 8.60976 | 29997 ft | 419 kts | 233° |
| 2026-05-07 17:16 | 44.73934 | 8.57795 | 30305 ft | 420 kts | 233° |
| 2026-05-07 17:16 | 44.72087 | 8.54609 | 30617 ft | 420 kts | 233° |
| 2026-05-07 17:16 | 44.70237 | 8.51422 | 30941 ft | 420 kts | 233° |
| 2026-05-07 17:17 | 44.68395 | 8.48252 | 31308 ft | 418 kts | 233° |
| 2026-05-07 17:17 | 44.66588 | 8.45147 | 31735 ft | 414 kts | 233° |
| 2026-05-07 17:17 | 44.64774 | 8.42032 | 32191 ft | 411 kts | 233° |
| 2026-05-07 17:17 | 44.62965 | 8.38930 | 32561 ft | 409 kts | 233° |
| 2026-05-07 17:18 | 44.61163 | 8.35841 | 32894 ft | 409 kts | 233° |
| 2026-05-07 17:18 | 44.59368 | 8.32766 | 33282 ft | 406 kts | 233° |
| 2026-05-07 17:18 | 44.57581 | 8.29710 | 33696 ft | 404 kts | 233° |
| 2026-05-07 17:18 | 44.55803 | 8.26674 | 34033 ft | 402 kts | 233° |
| 2026-05-07 17:19 | 44.54624 | 8.24661 | 34203 ft | 402 kts | 233° |
| 2026-05-07 17:19 | 44.52274 | 8.20653 | 34492 ft | 403 kts | 233° |
| 2026-05-07 17:19 | 44.50491 | 8.17616 | 34689 ft | 404 kts | 233° |
| 2026-05-07 17:19 | 44.48700 | 8.14569 | 34918 ft | 404 kts | 233° |
| 2026-05-07 17:20 | 44.45102 | 8.08456 | 34973 ft | 407 kts | 233° |
| 2026-05-07 17:20 | 44.42115 | 8.03395 | 34968 ft | 405 kts | 233° |
| 2026-05-07 17:21 | 44.38536 | 7.97340 | 34972 ft | 403 kts | 233° |
| 2026-05-07 17:21 | 44.34383 | 7.90327 | 34977 ft | 403 kts | 232° |
| 2026-05-07 17:22 | 44.31393 | 7.85287 | 34976 ft | 402 kts | 233° |
| 2026-05-07 17:22 | 44.27845 | 7.79324 | 34987 ft | 402 kts | 232° |
| 2026-05-07 17:23 | 44.23846 | 7.73846 | 34980 ft | 405 kts | 224° |
| 2026-05-07 17:23 | 44.18921 | 7.67859 | 35010 ft | 404 kts | 225° |
| 2026-05-07 17:24 | 44.15394 | 7.63492 | 34978 ft | 405 kts | 226° |
| 2026-05-07 17:24 | 44.11589 | 7.57858 | 34999 ft | 402 kts | 232° |
| 2026-05-07 17:25 | 44.07951 | 7.51949 | 34994 ft | 402 kts | 232° |
| 2026-05-07 17:25 | 44.03704 | 7.45104 | 34996 ft | 402 kts | 231° |
| 2026-05-07 17:26 | 44.00629 | 7.40195 | 34992 ft | 402 kts | 231° |
| 2026-05-07 17:26 | 43.96977 | 7.34387 | 34997 ft | 401 kts | 231° |
| 2026-05-07 17:27 | 43.93305 | 7.28564 | 34982 ft | 400 kts | 231° |
| 2026-05-07 17:27 | 43.89645 | 7.22769 | 34977 ft | 398 kts | 231° |
| 2026-05-07 17:28 | 43.85994 | 7.17001 | 34993 ft | 398 kts | 231° |
| 2026-05-07 17:28 | 43.82366 | 7.11278 | 34977 ft | 398 kts | 231° |
| 2026-05-07 17:29 | 43.78719 | 7.05535 | 34985 ft | 397 kts | 231° |
| 2026-05-07 17:29 | 43.75072 | 6.99807 | 34996 ft | 397 kts | 231° |
| 2026-05-07 17:30 | 43.71829 | 6.93679 | 34985 ft | 395 kts | 242° |
| 2026-05-07 17:30 | 43.69640 | 6.86742 | 34974 ft | 394 kts | 248° |
| 2026-05-07 17:31 | 43.67608 | 6.79763 | 34972 ft | 394 kts | 248° |
| 2026-05-07 17:31 | 43.65546 | 6.72751 | 34962 ft | 395 kts | 248° |
| 2026-05-07 17:32 | 43.63468 | 6.65731 | 34937 ft | 395 kts | 247° |
| 2026-05-07 17:32 | 43.61389 | 6.58734 | 34949 ft | 393 kts | 247° |
| 2026-05-07 17:33 | 43.59322 | 6.51795 | 34941 ft | 394 kts | 247° |
| 2026-05-07 17:33 | 43.53839 | 6.33478 | 34949 ft | 395 kts | 247° |
| 2026-05-07 17:34 | 43.47797 | 6.13526 | 35418 ft | 384 kts | 246° |
| 2026-05-07 17:34 | 43.46753 | 6.10139 | 35583 ft | 384 kts | 246° |
| 2026-05-07 17:34 | 43.45719 | 6.06742 | 35733 ft | 386 kts | 246° |
| 2026-05-07 17:35 | 43.43644 | 5.99834 | 35479 ft | 398 kts | 246° |
| 2026-05-07 17:35 | 43.42597 | 5.96358 | 35248 ft | 398 kts | 246° |
| 2026-05-07 17:35 | 43.41535 | 5.92848 | 35041 ft | 397 kts | 246° |
| 2026-05-07 17:36 | 43.35005 | 5.71463 | 34952 ft | 396 kts | 246° |
| 2026-05-07 17:36 | 43.26367 | 5.43486 | 34948 ft | 399 kts | 245° |
| 2026-05-07 17:37 | 43.22794 | 5.33884 | 34972 ft | 398 kts | 234° |
| 2026-05-07 17:37 | 43.18087 | 5.27204 | 34978 ft | 401 kts | 223° |
| 2026-05-07 17:38 | 43.07805 | 5.15275 | 34953 ft | 401 kts | 222° |
| 2026-05-07 17:38 | 42.94014 | 4.99246 | 34959 ft | 401 kts | 222° |
| 2026-05-07 17:39 | 42.79253 | 4.82175 | 34959 ft | 401 kts | 222° |
| 2026-05-07 17:39 | 42.46050 | 4.44138 | 34956 ft | 400 kts | 221° |
| 2026-05-07 17:40 | 42.18077 | 4.12600 | 34988 ft | 400 kts | 219° |
| 2026-05-07 17:40 | 42.03952 | 4.01898 | 34933 ft | 403 kts | 211° |
| 2026-05-07 17:41 | 41.78084 | 3.83646 | 34972 ft | 403 kts | 208° |
| 2026-05-07 17:41 | 41.37874 | 3.56923 | 34971 ft | 403 kts | 208° |
| 2026-05-07 17:42 | 41.18121 | 3.44164 | 34955 ft | 404 kts | 201° |
| 2026-05-07 17:42 | 40.96618 | 3.38383 | 34931 ft | 407 kts | 194° |
| 2026-05-07 17:43 | 40.52014 | 3.26709 | 34959 ft | 410 kts | 194° |
| 2026-05-07 17:43 | 40.22391 | 3.19076 | 34953 ft | 413 kts | 194° |
| 2026-05-07 17:44 | 39.93775 | 3.11659 | 34923 ft | 413 kts | 200° |
| 2026-05-07 17:44 | 39.87425 | 3.07721 | 34946 ft | 410 kts | 211° |
| 2026-05-07 17:45 | 39.77400 | 3.00345 | 34496 ft | 415 kts | 210° |
| 2026-05-07 17:45 | 39.72422 | 2.96727 | 34003 ft | 407 kts | 211° |
| 2026-05-07 17:45 | 39.67469 | 2.93133 | 33491 ft | 411 kts | 210° |
| 2026-05-07 17:46 | 39.62429 | 2.89479 | 32981 ft | 419 kts | 210° |
| 2026-05-07 17:46 | 39.57287 | 2.85760 | 32472 ft | 425 kts | 210° |
| 2026-05-07 17:46 | 39.52200 | 2.82086 | 31644 ft | 421 kts | 210° |
| 2026-05-07 17:46 | 39.48459 | 2.79388 | 30532 ft | 421 kts | 209° |
| 2026-05-07 17:47 | 39.45916 | 2.77514 | 29724 ft | 420 kts | 212° |
| 2026-05-07 17:47 | 39.43568 | 2.75267 | 28830 ft | 420 kts | 219° |
| 2026-05-07 17:47 | 39.41447 | 2.72648 | 27942 ft | 422 kts | 227° |
| 2026-05-07 17:47 | 39.39607 | 2.69728 | 27321 ft | 416 kts | 230° |
| 2026-05-07 17:48 | 39.37805 | 2.66823 | 26720 ft | 411 kts | 229° |
| 2026-05-07 17:48 | 39.36025 | 2.63965 | 26133 ft | 406 kts | 229° |
| 2026-05-07 17:48 | 39.34255 | 2.61139 | 25565 ft | 402 kts | 229° |
| 2026-05-07 17:48 | 39.32507 | 2.58358 | 25015 ft | 397 kts | 229° |
| 2026-05-07 17:49 | 39.30791 | 2.55638 | 24461 ft | 394 kts | 229° |
| 2026-05-07 17:49 | 39.29066 | 2.52908 | 23926 ft | 391 kts | 230° |
| 2026-05-07 17:49 | 39.27351 | 2.50199 | 23361 ft | 390 kts | 230° |
| 2026-05-07 17:49 | 39.25609 | 2.47449 | 22742 ft | 403 kts | 230° |
| 2026-05-07 17:50 | 39.23818 | 2.44626 | 22128 ft | 408 kts | 230° |
| 2026-05-07 17:50 | 39.22033 | 2.41813 | 21531 ft | 403 kts | 229° |
| 2026-05-07 17:50 | 39.20273 | 2.39039 | 20960 ft | 397 kts | 229° |
| 2026-05-07 17:50 | 39.18598 | 2.36221 | 20303 ft | 396 kts | 235° |
| 2026-05-07 17:51 | 39.17189 | 2.33185 | 19731 ft | 393 kts | 238° |
| 2026-05-07 17:51 | 39.15863 | 2.30167 | 19159 ft | 391 kts | 238° |
| 2026-05-07 17:51 | 39.14534 | 2.27116 | 18595 ft | 389 kts | 238° |
| 2026-05-07 17:51 | 39.13203 | 2.24080 | 17988 ft | 389 kts | 237° |
| 2026-05-07 17:52 | 39.11867 | 2.21067 | 17375 ft | 386 kts | 237° |
| 2026-05-07 17:52 | 39.10532 | 2.18079 | 16807 ft | 384 kts | 237° |
| 2026-05-07 17:52 | 39.09202 | 2.15119 | 16245 ft | 380 kts | 237° |
| 2026-05-07 17:52 | 39.07881 | 2.12191 | 15717 ft | 376 kts | 237° |
| 2026-05-07 17:53 | 39.06571 | 2.09295 | 15173 ft | 373 kts | 238° |
| 2026-05-07 17:53 | 39.05267 | 2.06417 | 14643 ft | 371 kts | 237° |
| 2026-05-07 17:53 | 39.03968 | 2.03551 | 14088 ft | 370 kts | 237° |
| 2026-05-07 17:53 | 39.02690 | 2.00738 | 13525 ft | 369 kts | 238° |
| 2026-05-07 17:54 | 39.01398 | 1.97894 | 12939 ft | 367 kts | 237° |
| 2026-05-07 17:54 | 39.00118 | 1.95077 | 12388 ft | 363 kts | 237° |
| 2026-05-07 17:54 | 38.98849 | 1.92287 | 11847 ft | 361 kts | 238° |
| 2026-05-07 17:54 | 38.97587 | 1.89517 | 11318 ft | 358 kts | 238° |
| 2026-05-07 17:55 | 38.96333 | 1.86766 | 11019 ft | 353 kts | 238° |
| 2026-05-07 17:55 | 38.95102 | 1.84068 | 10810 ft | 347 kts | 237° |
| 2026-05-07 17:55 | 38.93891 | 1.81414 | 10646 ft | 341 kts | 238° |
| 2026-05-07 17:55 | 38.92711 | 1.78830 | 10491 ft | 330 kts | 238° |
| 2026-05-07 17:56 | 38.91567 | 1.76327 | 10335 ft | 320 kts | 237° |
| 2026-05-07 17:56 | 38.90470 | 1.73929 | 10195 ft | 311 kts | 237° |
| 2026-05-07 17:56 | 38.89392 | 1.71575 | 10069 ft | 302 kts | 237° |
| 2026-05-07 17:56 | 38.88342 | 1.69286 | 9946 ft | 293 kts | 237° |
| 2026-05-07 17:57 | 38.87318 | 1.67053 | 9922 ft | 286 kts | 238° |
| 2026-05-07 17:57 | 38.86657 | 1.65613 | 9911 ft | 279 kts | 237° |
| 2026-05-07 17:57 | 38.85381 | 1.62831 | 9896 ft | 262 kts | 237° |
| 2026-05-07 17:57 | 38.84480 | 1.60869 | 9891 ft | 250 kts | 237° |
| 2026-05-07 17:58 | 38.83656 | 1.58920 | 9894 ft | 251 kts | 247° |
| 2026-05-07 17:58 | 38.83145 | 1.56679 | 9940 ft | 282 kts | 253° |
| 2026-05-07 17:58 | 38.82617 | 1.54106 | 9936 ft | 315 kts | 253° |
| 2026-05-07 17:58 | 38.82030 | 1.51321 | 9917 ft | 330 kts | 253° |
| 2026-05-07 17:59 | 38.81415 | 1.48491 | 9907 ft | 330 kts | 253° |
| 2026-05-07 17:59 | 38.80786 | 1.45641 | 9910 ft | 333 kts | 253° |
| 2026-05-07 17:59 | 38.80130 | 1.42799 | 9903 ft | 332 kts | 249° |
| 2026-05-07 17:59 | 38.79166 | 1.40132 | 9916 ft | 329 kts | 240° |
| 2026-05-07 18:00 | 38.78045 | 1.37570 | 9906 ft | 329 kts | 239° |
| 2026-05-07 18:00 | 38.76919 | 1.35011 | 9906 ft | 329 kts | 239° |
| 2026-05-07 18:00 | 38.75838 | 1.32474 | 9905 ft | 330 kts | 240° |
| 2026-05-07 18:00 | 38.74757 | 1.29887 | 9898 ft | 327 kts | 241° |
| 2026-05-07 18:01 | 38.73704 | 1.27350 | 9552 ft | 320 kts | 240° |
| 2026-05-07 18:01 | 38.72692 | 1.24913 | 9442 ft | 300 kts | 240° |
| 2026-05-07 18:01 | 38.71737 | 1.22618 | 9294 ft | 283 kts | 240° |
| 2026-05-07 18:01 | 38.70836 | 1.20458 | 9185 ft | 267 kts | 240° |
| 2026-05-07 18:02 | 38.69147 | 1.16416 | 8622 ft | 253 kts | 241° |
| 2026-05-07 18:02 | 38.68313 | 1.14424 | 8163 ft | 254 kts | 241° |
| 2026-05-07 18:02 | 38.67498 | 1.12478 | 7877 ft | 248 kts | 242° |
| 2026-05-07 18:03 | 38.66685 | 1.10535 | 7459 ft | 249 kts | 242° |
| 2026-05-07 18:03 | 38.65868 | 1.08584 | 7066 ft | 248 kts | 243° |
| 2026-05-07 18:03 | 38.65053 | 1.06642 | 6702 ft | 247 kts | 242° |
| 2026-05-07 18:03 | 38.64379 | 1.04657 | 6409 ft | 241 kts | 258° |
| 2026-05-07 18:04 | 38.64126 | 1.02553 | 6037 ft | 239 kts | 262° |
| 2026-05-07 18:04 | 38.63885 | 1.00446 | 5611 ft | 240 kts | 263° |
| 2026-05-07 18:04 | 38.63932 | 0.98377 | 5205 ft | 236 kts | 292° |
| 2026-05-07 18:04 | 38.64832 | 0.96765 | 5084 ft | 217 kts | 324° |
| 2026-05-07 18:05 | 38.66137 | 0.95992 | 5013 ft | 200 kts | 351° |
| 2026-05-07 18:05 | 38.67494 | 0.96019 | 4731 ft | 195 kts | 13° |
| 2026-05-07 18:05 | 38.68723 | 0.96696 | 4459 ft | 191 kts | 34° |
| 2026-05-07 18:05 | 38.69733 | 0.97797 | 4135 ft | 189 kts | 40° |
| 2026-05-07 18:06 | 38.70715 | 0.98916 | 3770 ft | 190 kts | 40° |
| 2026-05-07 18:06 | 38.71701 | 1.00040 | 3440 ft | 189 kts | 41° |
| 2026-05-07 18:06 | 38.72481 | 1.01385 | 3129 ft | 190 kts | 62° |
| 2026-05-07 18:06 | 38.73063 | 1.02902 | 3061 ft | 190 kts | 60° |
| 2026-05-07 18:07 | 38.73663 | 1.04379 | 3017 ft | 189 kts | 60° |
| 2026-05-07 18:07 | 38.74274 | 1.05869 | 3017 ft | 189 kts | 60° |
| 2026-05-07 18:07 | 38.74880 | 1.07348 | 3001 ft | 187 kts | 59° |
| 2026-05-07 18:07 | 38.75490 | 1.08833 | 3014 ft | 189 kts | 59° |
| 2026-05-07 18:08 | 38.76104 | 1.10330 | 3010 ft | 196 kts | 60° |
| 2026-05-07 18:08 | 38.76767 | 1.11942 | 3022 ft | 210 kts | 60° |
| 2026-05-07 18:08 | 38.77456 | 1.13622 | 3022 ft | 214 kts | 60° |
| 2026-05-07 18:08 | 38.78144 | 1.15291 | 2999 ft | 211 kts | 58° |
| 2026-05-07 18:09 | 38.78833 | 1.16915 | 2864 ft | 208 kts | 58° |
| 2026-05-07 18:09 | 38.79496 | 1.18494 | 2695 ft | 195 kts | 58° |
| 2026-05-07 18:09 | 38.80116 | 1.19980 | 2543 ft | 183 kts | 57° |
| 2026-05-07 18:09 | 38.80719 | 1.21372 | 2388 ft | 174 kts | 58° |
| 2026-05-07 18:10 | 38.81280 | 1.22710 | 2303 ft | 171 kts | 58° |
| 2026-05-07 18:10 | 38.81843 | 1.24071 | 2063 ft | 172 kts | 58° |
| 2026-05-07 18:10 | 38.82390 | 1.25406 | 1839 ft | 167 kts | 58° |
| 2026-05-07 18:10 | 38.82924 | 1.26707 | 1627 ft | 165 kts | 58° |
| 2026-05-07 18:11 | 38.83462 | 1.28014 | 1411 ft | 166 kts | 57° |
| 2026-05-07 18:11 | 38.83815 | 1.28874 | 1259 ft | 162 kts | 57° |
| 2026-05-07 18:11 | 38.84481 | 1.30496 | 1000 ft | 148 kts | 56° |
| 2026-05-07 18:11 | 38.84959 | 1.31655 | 809 ft | 144 kts | 57° |
| 2026-05-07 18:12 | 38.85427 | 1.32790 | 616 ft | 145 kts | 59° |
| 2026-05-07 18:12 | 38.85906 | 1.33956 | 418 ft | 149 kts | 59° |
| 2026-05-07 18:12 | 38.86389 | 1.35139 | 233 ft | 147 kts | 62° |
| 2026-05-07 18:12 | 38.86840 | 1.36265 | 51 ft | 133 kts | 58° |
| 2026-05-07 18:13 | 38.87230 | 1.37182 | 28 ft | 91 kts | 62° |
| 2026-05-07 18:13 | 38.87427 | 1.37658 | 26 ft | 38 kts | 60° |
| 2026-05-07 18:13 | 38.87586 | 1.37855 | 29 ft | 25 kts | 30° |
| 2026-05-07 18:13 | 38.87624 | 1.37891 | 29 ft | 6 kts | 36° |
| 2026-05-07 18:14 | 38.87662 | 1.37914 | 29 ft | 6 kts | 12° |
| 2026-05-07 18:14 | 38.87694 | 1.37888 | 29 ft | 6 kts | 290° |
| 2026-05-07 18:14 | 38.87689 | 1.37835 | 28 ft | 7 kts | 248° |
| 2026-05-07 18:14 | 38.87660 | 1.37758 | 28 ft | 13 kts | 243° |
| 2026-05-07 18:15 | 38.87606 | 1.37636 | 28 ft | 17 kts | 239° |
| 2026-05-07 18:15 | 38.87552 | 1.37506 | 28 ft | 16 kts | 242° |
| 2026-05-07 18:15 | 38.87500 | 1.37380 | 28 ft | 16 kts | 242° |
| 2026-05-07 18:15 | 38.87450 | 1.37259 | 28 ft | 15 kts | 241° |
| 2026-05-07 18:16 | 38.87408 | 1.37158 | 28 ft | 10 kts | 242° |
| 2026-05-07 18:16 | 38.87386 | 1.37103 | 28 ft | 0 kts | 255° |
| 2026-05-07 18:16 | 38.87387 | 1.37101 | 28 ft | 1 kts | 270° |
| 2026-05-07 18:16 | 38.87396 | 1.37097 | 28 ft | 2 kts | 341° |
| 2026-05-07 18:17 | 38.87411 | 1.37089 | 28 ft | 2 kts | 332° |
| 2026-05-07 18:17 | 38.87426 | 1.37078 | 28 ft | 3 kts | 332° |
| 2026-05-07 18:17 | 38.87443 | 1.37067 | 27 ft | 3 kts | 332° |
| 2026-05-07 18:17 | 38.87461 | 1.37055 | 27 ft | 3 kts | 333° |
| 2026-05-07 18:18 | 38.87475 | 1.37045 | 27 ft | 0 kts | 332° |